Arthur, Iowa
Current Conditions -  °F | °C
As of 4:35 AM on Thursday 18 Dec 2014 (Local Time) from KSLB Reporting Station
Overcast Overcast  
Wind Chill: -12°   Ceiling: 8000
Heat Index: -7°   Visibility: 10mi
Dew Point: -9°   Wind: 7mph
Humidity: 86%   Direction: 110°ESE
Pressure: 30.23"   Gusts: NA
Location:  42.33°N, 95.35°W
Report Text: KSLB 181035Z AUTO 11006KT 10SM OVC080 M07/M09 A3023 RMK AO2
Loading
Personal Weather Stations






























Interactive Weather Map New forecast layout! Learn more

10-Day Weather Forecast

Advertisements
Track Severe Weather on mobile